createdAt,value
2022-08-16T00:00:38.781Z,81.22
2022-08-16T00:01:34.269Z,81.60
2022-08-16T00:02:31.091Z,81.41
2022-08-16T00:03:30.930Z,81.22
2022-08-16T00:04:30.940Z,81.70
2022-08-16T00:05:35.178Z,81.37
2022-08-16T00:06:30.967Z,81.47
2022-08-16T00:07:30.982Z,81.66
2022-08-16T00:08:36.973Z,82.14
2022-08-16T00:09:31.016Z,82.23
2022-08-16T00:10:31.026Z,82.32
2022-08-16T00:11:31.045Z,81.95
2022-08-16T00:12:31.060Z,82.04
2022-08-16T00:13:31.082Z,81.66
2022-08-16T00:14:31.090Z,81.56
2022-08-16T00:15:51.371Z,81.66
2022-08-16T00:17:00.717Z,81.95
2022-08-16T00:17:56.494Z,81.95
2022-08-16T00:18:31.662Z,82.14
2022-08-16T00:19:41.935Z,81.95
2022-08-16T00:20:31.182Z,81.60
2022-08-16T00:21:31.200Z,81.85
2022-08-16T00:22:31.210Z,82.37
2022-08-16T00:23:34.644Z,82.04
2022-08-16T00:24:32.942Z,81.13
2022-08-16T00:26:33.786Z,81.27
2022-08-16T00:26:36.487Z,81.66
2022-08-16T00:27:31.289Z,81.85
2022-08-16T00:28:31.309Z,81.37
2022-08-16T00:29:31.324Z,81.66
2022-08-16T00:30:31.339Z,82.04
2022-08-16T00:31:59.883Z,82.32
2022-08-16T00:32:32.686Z,81.66
2022-08-16T00:33:31.385Z,81.66
2022-08-16T00:34:44.607Z,81.18
2022-08-16T00:35:31.413Z,81.56
2022-08-16T00:36:31.431Z,81.27
2022-08-16T00:37:56.862Z,81.18
2022-08-16T00:38:40.492Z,81.47
2022-08-16T00:39:31.552Z,81.56
2022-08-16T00:40:34.254Z,81.18
2022-08-16T00:41:31.504Z,81.56
2022-08-16T00:42:32.291Z,81.09
2022-08-16T00:43:42.785Z,81.56
2022-08-16T00:44:32.587Z,81.66
2022-08-16T00:45:31.568Z,81.56
2022-08-16T00:46:34.087Z,81.47
2022-08-16T00:47:31.600Z,81.27
2022-08-16T00:48:32.128Z,81.56
2022-08-16T00:49:39.543Z,81.66
2022-08-16T00:50:36.586Z,81.37
2022-08-16T00:51:31.662Z,81.37
2022-08-16T00:52:31.682Z,81.76
2022-08-16T00:53:31.695Z,81.66
2022-08-16T00:54:32.881Z,82.14
2022-08-16T00:55:38.079Z,82.04
2022-08-16T00:56:57.741Z,82.14
2022-08-16T00:57:44.510Z,81.66
2022-08-16T00:58:34.674Z,81.56
2022-08-16T00:59:32.790Z,81.85
2022-08-16T01:00:31.895Z,82.14
2022-08-16T01:01:31.818Z,81.66
2022-08-16T01:02:33.381Z,81.66
2022-08-16T01:03:34.992Z,82.14
2022-08-16T01:04:31.869Z,82.32
2022-08-16T01:05:32.951Z,82.32
2022-08-16T01:06:39.564Z,82.32
2022-08-16T01:07:50.899Z,82.04
2022-08-16T01:08:34.982Z,82.23
2022-08-16T01:09:33.668Z,81.76
2022-08-16T01:10:33.429Z,82.23
2022-08-16T01:11:31.971Z,82.32
2022-08-16T01:12:31.982Z,82.61
2022-08-16T01:13:32.002Z,83.57
2022-08-16T01:14:32.011Z,83.57
2022-08-16T01:15:32.029Z,83.28
2022-08-16T01:16:32.055Z,82.76
2022-08-16T01:17:36.705Z,82.95
2022-08-16T01:18:39.076Z,82.90
2022-08-16T01:19:32.092Z,82.81
2022-08-16T01:20:32.113Z,82.90
2022-08-16T01:21:33.626Z,82.76
2022-08-16T01:22:48.000Z,82.48
2022-08-16T01:23:58.178Z,83.28
2022-08-16T01:24:53.456Z,83.38
2022-08-16T01:25:33.962Z,83.62
2022-08-16T01:26:34.974Z,83.81
2022-08-16T01:27:34.643Z,84.10
2022-08-16T01:28:34.723Z,84.39
2022-08-16T01:29:56.775Z,84.10
2022-08-16T01:30:32.258Z,84.29
2022-08-16T01:31:32.271Z,84.96
2022-08-16T01:32:34.171Z,84.77
2022-08-16T01:33:33.128Z,84.77
2022-08-16T01:34:32.316Z,85.15
2022-08-16T01:35:35.379Z,85.63
2022-08-16T01:36:32.348Z,86.10
2022-08-16T01:37:35.568Z,85.91
2022-08-16T01:38:32.379Z,86.58
2022-08-16T01:39:35.411Z,86.49
2022-08-16T01:40:32.508Z,86.01
2022-08-16T01:41:32.423Z,85.82
2022-08-16T01:42:32.434Z,85.53
2022-08-16T01:43:32.452Z,86.20
2022-08-16T01:44:37.780Z,86.10
2022-08-16T01:45:40.894Z,85.82
2022-08-16T01:46:39.696Z,85.44
2022-08-16T01:47:32.952Z,85.44
2022-08-16T01:48:32.526Z,86.01
2022-08-16T01:49:43.054Z,86.30
2022-08-16T01:50:42.604Z,85.63
2022-08-16T01:51:32.567Z,86.01
2022-08-16T01:52:32.586Z,85.53
2022-08-16T01:53:32.601Z,85.63
2022-08-16T01:54:32.619Z,85.44
2022-08-16T01:55:35.652Z,84.96
2022-08-16T01:56:32.643Z,85.44
2022-08-16T01:57:32.657Z,85.63
2022-08-16T01:58:32.672Z,85.53
2022-08-16T01:59:32.794Z,85.82
2022-08-16T02:00:32.713Z,85.72
2022-08-16T02:01:32.814Z,85.25
2022-08-16T02:02:32.734Z,85.53
2022-08-16T02:03:32.749Z,85.05
2022-08-16T02:04:49.371Z,85.44
2022-08-16T02:05:32.782Z,85.63
2022-08-16T02:06:34.593Z,85.15
2022-08-16T02:07:32.816Z,85.34
2022-08-16T02:08:34.195Z,85.44
2022-08-16T02:09:33.832Z,85.63
2022-08-16T02:10:34.018Z,85.25
2022-08-16T02:11:47.697Z,85.53
2022-08-16T02:12:49.955Z,85.82
2022-08-16T02:13:33.097Z,85.44
2022-08-16T02:14:32.912Z,85.34
2022-08-16T02:15:35.488Z,85.25
2022-08-16T02:16:32.943Z,85.44
2022-08-16T02:17:32.955Z,85.34
2022-08-16T02:18:32.971Z,85.15
2022-08-16T02:19:58.790Z,84.96
2022-08-16T02:20:33.004Z,84.96
2022-08-16T02:21:33.016Z,85.15
2022-08-16T02:22:35.167Z,85.15
2022-08-16T02:23:33.047Z,85.25
2022-08-16T02:24:40.988Z,84.77
2022-08-16T02:25:51.129Z,84.86
2022-08-16T02:26:34.392Z,84.77
2022-08-16T02:27:33.105Z,84.86
2022-08-16T02:28:33.121Z,85.44
2022-08-16T02:29:33.137Z,84.77
2022-08-16T02:30:35.805Z,85.25
2022-08-16T02:32:04.030Z,84.96
2022-08-16T02:32:50.365Z,85.25
2022-08-16T02:33:44.024Z,85.05
2022-08-16T02:34:40.871Z,85.34
2022-08-16T02:35:33.225Z,85.25
2022-08-16T02:36:47.526Z,85.15
2022-08-16T02:37:51.247Z,85.63
2022-08-16T02:38:33.270Z,85.01
2022-08-16T02:39:33.337Z,85.11
2022-08-16T02:40:33.300Z,85.58
2022-08-16T02:41:37.367Z,85.63
2022-08-16T02:42:33.352Z,85.39
2022-08-16T02:43:33.443Z,84.82
2022-08-16T02:44:33.464Z,84.96
2022-08-16T02:45:33.378Z,84.96
2022-08-16T02:46:33.858Z,84.96
2022-08-16T02:47:33.399Z,85.30
2022-08-16T02:48:33.418Z,85.34
2022-08-16T02:49:59.269Z,85.44
2022-08-16T02:50:54.053Z,85.21
2022-08-16T02:51:33.462Z,86.20
2022-08-16T02:52:33.488Z,86.25
2022-08-16T02:53:33.499Z,86.58
2022-08-16T02:54:33.503Z,86.87
2022-08-16T02:55:41.309Z,86.39
2022-08-16T02:56:33.544Z,85.87
2022-08-16T02:57:33.555Z,86.63
2022-08-16T02:58:33.567Z,86.87
2022-08-16T02:59:39.692Z,86.92
2022-08-16T03:00:36.153Z,87.11
2022-08-16T03:01:37.072Z,86.92
2022-08-16T03:02:33.623Z,86.54
2022-08-16T03:04:28.718Z,86.44
2022-08-16T03:04:50.585Z,85.77
2022-08-16T03:05:33.677Z,86.25
2022-08-16T03:06:42.140Z,86.35
2022-08-16T03:07:37.062Z,86.44
2022-08-16T03:08:51.007Z,85.49
2022-08-16T03:09:33.728Z,86.54
2022-08-16T03:10:34.225Z,87.02
2022-08-16T03:11:35.360Z,87.59
2022-08-16T03:12:36.831Z,88.07
2022-08-16T03:13:39.980Z,88.16
2022-08-16T03:14:33.799Z,88.07
2022-08-16T03:15:33.826Z,87.87
2022-08-16T03:16:39.108Z,87.68
2022-08-16T03:17:33.849Z,87.68
2022-08-16T03:18:40.171Z,88.26
2022-08-16T03:19:42.194Z,87.87
2022-08-16T03:20:34.295Z,89.02
2022-08-16T03:21:37.678Z,89.50
2022-08-16T03:22:33.914Z,89.31
2022-08-16T03:23:35.530Z,89.21
2022-08-16T03:24:33.946Z,89.69
2022-08-16T03:25:41.121Z,89.97
2022-08-16T03:26:33.979Z,89.97
2022-08-16T03:27:33.995Z,90.55
2022-08-16T03:28:34.005Z,90.07
2022-08-16T03:29:34.030Z,90.45
2022-08-16T03:30:34.039Z,90.17
2022-08-16T03:31:34.891Z,90.64
2022-08-16T03:32:34.081Z,90.07
2022-08-16T03:33:34.078Z,89.97
2022-08-16T03:34:34.093Z,88.92
2022-08-16T03:35:34.111Z,88.92
2022-08-16T03:36:34.126Z,88.64
2022-08-16T03:38:01.803Z,88.26
2022-08-16T03:38:35.269Z,88.07
2022-08-16T03:39:34.198Z,88.45
2022-08-16T03:40:34.392Z,87.87
2022-08-16T03:41:49.713Z,88.07
2022-08-16T03:42:34.209Z,88.35
2022-08-16T03:43:51.874Z,88.07
2022-08-16T03:44:43.279Z,88.26
2022-08-16T03:45:34.250Z,88.64
2022-08-16T03:46:47.217Z,89.50
2022-08-16T03:47:34.479Z,89.21
2022-08-16T03:48:36.903Z,88.92
2022-08-16T03:49:36.527Z,89.97
2022-08-16T03:50:34.322Z,89.40
2022-08-16T03:51:34.343Z,89.50
2022-08-16T03:52:34.357Z,90.07
2022-08-16T03:53:37.703Z,89.78
2022-08-16T03:54:35.625Z,91.12
2022-08-16T03:55:45.534Z,91.41
2022-08-16T03:56:34.415Z,91.60
2022-08-16T03:57:35.562Z,91.69
2022-08-16T03:58:34.449Z,91.88
2022-08-16T03:59:34.456Z,91.60
2022-08-16T04:00:35.876Z,91.69
2022-08-16T04:01:34.575Z,91.12
2022-08-16T04:02:34.497Z,91.21
2022-08-16T04:03:34.515Z,91.50
2022-08-16T04:04:34.529Z,91.50
2022-08-16T04:05:34.547Z,91.50
2022-08-16T04:06:34.564Z,91.21
2022-08-16T04:07:34.574Z,90.83
2022-08-16T04:08:34.734Z,91.02
2022-08-16T04:09:35.218Z,91.02
2022-08-16T04:10:36.759Z,90.45
2022-08-16T04:11:37.610Z,90.31
2022-08-16T04:12:54.376Z,90.45
2022-08-16T04:14:00.368Z,90.07
2022-08-16T04:14:34.752Z,89.97
2022-08-16T04:15:34.786Z,90.26
2022-08-16T04:16:34.701Z,89.97
2022-08-16T04:17:35.141Z,89.88
2022-08-16T04:18:34.734Z,89.88
2022-08-16T04:19:34.742Z,89.50
2022-08-16T04:20:36.959Z,89.59
2022-08-16T04:21:34.869Z,90.07
2022-08-16T04:22:34.788Z,90.45
2022-08-16T04:23:34.799Z,90.55
2022-08-16T04:24:34.819Z,90.26
2022-08-16T04:25:34.832Z,91.02
2022-08-16T04:26:34.849Z,90.93
2022-08-16T04:27:34.864Z,91.60
2022-08-16T04:28:55.681Z,91.78
2022-08-16T04:29:44.158Z,91.78
2022-08-16T04:30:35.794Z,90.36
2022-08-16T04:31:34.923Z,91.12
2022-08-16T04:32:35.634Z,91.17
2022-08-16T04:33:35.142Z,91.41
2022-08-16T04:34:34.963Z,91.02
2022-08-16T04:35:34.975Z,91.36
2022-08-16T04:36:34.995Z,91.60
2022-08-16T04:37:42.283Z,91.69
2022-08-16T04:38:35.020Z,92.36
2022-08-16T04:39:46.118Z,91.46
2022-08-16T04:40:35.088Z,91.83
2022-08-16T04:41:37.540Z,91.12
2022-08-16T04:42:35.879Z,90.98
2022-08-16T04:43:35.098Z,90.79
2022-08-16T04:44:53.736Z,90.79
2022-08-16T04:45:36.245Z,90.41
2022-08-16T04:47:02.456Z,90.31
2022-08-16T04:47:35.661Z,89.93
2022-08-16T04:48:35.160Z,89.69
2022-08-16T04:49:38.432Z,89.59
2022-08-16T04:50:35.188Z,88.83
2022-08-16T04:51:35.967Z,88.73
2022-08-16T04:52:36.073Z,88.07
2022-08-16T04:53:35.245Z,87.68
2022-08-16T04:54:35.249Z,87.68
2022-08-16T04:55:38.122Z,87.68
2022-08-16T04:56:35.274Z,87.68
2022-08-16T04:57:35.306Z,87.40
2022-08-16T04:58:43.611Z,87.30
2022-08-16T04:59:35.321Z,86.54
2022-08-16T05:00:35.335Z,86.06
2022-08-16T05:01:57.758Z,85.87
2022-08-16T05:02:42.024Z,85.58
2022-08-16T05:03:35.392Z,85.39
2022-08-16T05:04:35.400Z,85.49
2022-08-16T05:05:45.515Z,85.30
2022-08-16T05:06:42.301Z,85.11
2022-08-16T05:07:35.539Z,85.39
2022-08-16T05:08:35.453Z,85.77
2022-08-16T05:09:36.586Z,86.35
2022-08-16T05:10:35.531Z,86.73
2022-08-16T05:11:35.491Z,86.63
2022-08-16T05:12:35.506Z,86.25
2022-08-16T05:13:41.761Z,85.68
2022-08-16T05:14:45.911Z,85.49
2022-08-16T05:15:35.549Z,85.58
2022-08-16T05:16:35.563Z,85.77
2022-08-16T05:17:35.574Z,85.77
2022-08-16T05:18:35.591Z,85.49
2022-08-16T05:19:35.997Z,85.39
2022-08-16T05:20:45.451Z,85.39
2022-08-16T05:21:38.221Z,85.21
2022-08-16T05:22:35.651Z,85.30
2022-08-16T05:23:35.665Z,85.21
2022-08-16T05:24:35.678Z,84.72
2022-08-16T05:25:41.004Z,85.30
2022-08-16T05:26:35.706Z,85.01
2022-08-16T05:27:42.706Z,84.92
2022-08-16T05:28:37.733Z,84.92
2022-08-16T05:29:57.725Z,85.21
2022-08-16T05:30:37.193Z,85.39
2022-08-16T05:31:35.781Z,84.82
2022-08-16T05:32:36.610Z,85.21
2022-08-16T05:33:35.814Z,85.11
2022-08-16T05:34:35.826Z,85.39
2022-08-16T05:35:35.837Z,85.49
2022-08-16T05:36:36.751Z,85.21
2022-08-16T05:37:39.789Z,85.58
2022-08-16T05:38:39.252Z,85.49
2022-08-16T05:39:37.639Z,85.97
2022-08-16T05:40:35.909Z,86.63
2022-08-16T05:41:45.083Z,86.35
2022-08-16T05:42:36.170Z,86.44
2022-08-16T05:43:43.424Z,87.21
2022-08-16T05:44:35.961Z,86.82
2022-08-16T05:45:36.471Z,87.30
2022-08-16T05:46:35.994Z,87.87
2022-08-16T05:47:43.378Z,88.26
2022-08-16T05:48:36.021Z,87.97
2022-08-16T05:49:38.499Z,88.26
2022-08-16T05:50:36.050Z,87.87
2022-08-16T05:51:38.497Z,87.59
2022-08-16T05:52:36.078Z,87.68
2022-08-16T05:53:36.403Z,87.40
2022-08-16T05:54:36.108Z,87.30
2022-08-16T05:55:40.586Z,86.92
2022-08-16T05:56:37.516Z,86.92
2022-08-16T05:57:36.158Z,87.11
2022-08-16T05:58:36.168Z,86.92
2022-08-16T05:59:36.188Z,86.92
2022-08-16T06:00:36.190Z,86.44
2022-08-16T06:01:38.080Z,86.54
2022-08-16T06:02:36.227Z,86.44
2022-08-16T06:03:36.239Z,86.63
2022-08-16T06:04:37.743Z,86.63
2022-08-16T06:05:36.299Z,86.87
2022-08-16T06:06:36.284Z,86.44
2022-08-16T06:07:36.306Z,86.58
2022-08-16T06:08:42.224Z,86.20
2022-08-16T06:09:42.725Z,86.49
2022-08-16T06:10:36.334Z,86.39
2022-08-16T06:11:36.349Z,86.49
2022-08-16T06:12:36.475Z,86.49
2022-08-16T06:13:36.375Z,86.49
2022-08-16T06:14:36.390Z,86.49
2022-08-16T06:15:36.406Z,86.30
2022-08-16T06:16:36.421Z,86.68
2022-08-16T06:17:43.164Z,86.49
2022-08-16T06:18:36.445Z,86.43
2022-08-16T06:19:36.467Z,86.10
2022-08-16T06:20:36.733Z,86.39
2022-08-16T06:21:36.710Z,86.82
2022-08-16T06:22:39.095Z,86.05
2022-08-16T06:23:36.520Z,85.38
2022-08-16T06:24:55.094Z,84.91
2022-08-16T06:25:39.018Z,85.19
2022-08-16T06:26:38.545Z,84.14
2022-08-16T06:27:39.838Z,83.86
2022-08-16T06:28:37.150Z,83.67
2022-08-16T06:29:36.605Z,83.47
2022-08-16T06:30:36.620Z,83.28
2022-08-16T06:31:46.610Z,83.51
2022-08-16T06:32:42.998Z,84.28
2022-08-16T06:33:41.404Z,83.90
2022-08-16T06:34:56.589Z,83.80
2022-08-16T06:35:41.491Z,83.99
2022-08-16T06:36:36.717Z,84.28
2022-08-16T06:37:37.310Z,82.94
2022-08-16T06:38:36.739Z,83.42
2022-08-16T06:39:49.819Z,83.61
2022-08-16T06:40:36.767Z,83.04
2022-08-16T06:41:39.609Z,82.94
2022-08-16T06:42:39.573Z,82.08
2022-08-16T06:43:36.810Z,81.79
2022-08-16T06:44:36.826Z,82.18
2022-08-16T06:45:36.849Z,82.18
2022-08-16T06:46:36.879Z,82.56
2022-08-16T06:47:52.548Z,82.75
2022-08-16T06:48:36.882Z,82.28
2022-08-16T06:49:36.897Z,82.18
2022-08-16T06:50:36.917Z,81.60
2022-08-16T06:51:46.089Z,81.13
2022-08-16T06:52:58.293Z,81.45
2022-08-16T06:53:37.089Z,81.55
2022-08-16T06:54:36.968Z,81.26
2022-08-16T06:55:38.378Z,80.79
2022-08-16T06:56:37.004Z,80.21
2022-08-16T06:57:39.848Z,81.07
2022-08-16T06:58:37.042Z,80.02
2022-08-16T06:59:48.623Z,79.93
2022-08-16T07:00:37.788Z,79.16
2022-08-16T07:01:44.961Z,79.64
2022-08-16T07:02:37.250Z,79.73
2022-08-16T07:03:55.901Z,79.83
2022-08-16T07:04:37.314Z,79.22
2022-08-16T07:05:41.863Z,79.50
2022-08-16T07:06:37.154Z,79.54
2022-08-16T07:07:37.164Z,80.40
2022-08-16T07:08:37.177Z,80.79
2022-08-16T07:09:37.191Z,80.79
2022-08-16T07:10:37.210Z,79.54
2022-08-16T07:11:45.879Z,78.78
2022-08-16T07:12:46.897Z,79.58
2022-08-16T07:14:00.790Z,79.10
2022-08-16T07:14:37.365Z,78.72
2022-08-16T07:15:37.281Z,77.67
2022-08-16T07:16:37.305Z,77.48
2022-08-16T07:17:37.312Z,77.28
2022-08-16T07:18:37.328Z,77.09
2022-08-16T07:20:03.563Z,76.62
2022-08-16T07:20:47.269Z,77.48
2022-08-16T07:21:45.899Z,76.81
2022-08-16T07:22:39.672Z,75.95
2022-08-16T07:23:39.165Z,75.95
2022-08-16T07:24:45.812Z,76.04
2022-08-16T07:25:40.347Z,76.71
2022-08-16T07:26:37.447Z,76.62
2022-08-16T07:27:37.710Z,76.90
2022-08-16T07:28:37.482Z,77.48
2022-08-16T07:29:37.490Z,76.52
2022-08-16T07:30:39.016Z,75.89
2022-08-16T07:31:38.359Z,75.41
2022-08-16T07:32:37.540Z,76.08
2022-08-16T07:33:51.803Z,75.70
2022-08-16T07:34:37.780Z,75.41
2022-08-16T07:35:37.586Z,74.65
2022-08-16T07:36:37.597Z,74.45
2022-08-16T07:37:37.671Z,75.22
2022-08-16T07:38:37.629Z,75.79
2022-08-16T07:39:43.068Z,74.93
2022-08-16T07:41:00.713Z,74.84
2022-08-16T07:41:37.676Z,74.26
2022-08-16T07:42:37.685Z,73.72
2022-08-16T07:43:40.588Z,73.69
2022-08-16T07:44:50.659Z,73.91
2022-08-16T07:45:37.741Z,74.20
2022-08-16T07:46:40.175Z,74.30
2022-08-16T07:47:37.770Z,74.49
2022-08-16T07:48:37.779Z,73.72
2022-08-16T07:49:37.799Z,73.72
2022-08-16T07:50:55.740Z,73.63
2022-08-16T07:51:37.836Z,74.20
2022-08-16T07:52:38.860Z,74.24
2022-08-16T07:53:43.395Z,74.15
2022-08-16T07:54:39.293Z,72.13
2022-08-16T07:55:45.781Z,72.23
2022-08-16T07:56:37.935Z,72.52
2022-08-16T07:57:44.381Z,72.52
2022-08-16T07:58:37.943Z,72.42
2022-08-16T07:59:42.923Z,72.36
2022-08-16T08:00:38.020Z,72.27
2022-08-16T08:01:37.986Z,71.37
2022-08-16T08:02:37.998Z,71.78
2022-08-16T08:03:39.993Z,71.66
2022-08-16T08:04:38.038Z,71.66
2022-08-16T08:05:38.041Z,71.50
2022-08-16T08:06:38.059Z,71.11
2022-08-16T08:07:38.081Z,71.11
2022-08-16T08:08:51.616Z,70.92
2022-08-16T08:09:43.413Z,70.54
2022-08-16T08:10:38.126Z,71.78
2022-08-16T08:11:38.138Z,72.36
2022-08-16T08:12:38.158Z,71.69
2022-08-16T08:13:42.788Z,71.59
2022-08-16T08:14:38.199Z,71.50
2022-08-16T08:15:38.207Z,70.76
2022-08-16T08:16:38.225Z,69.77
2022-08-16T08:18:38.268Z,70.54
2022-08-16T08:18:41.447Z,70.44
2022-08-16T08:19:40.462Z,70.57
2022-08-16T08:20:38.287Z,70.29
2022-08-16T08:22:00.636Z,70.38
2022-08-16T08:22:38.315Z,68.91
2022-08-16T08:23:42.511Z,69.71
2022-08-16T08:24:38.346Z,68.85
2022-08-16T08:25:55.050Z,69.71
2022-08-16T08:26:38.391Z,69.68
2022-08-16T08:27:38.394Z,70.29
2022-08-16T08:28:38.417Z,70.00
2022-08-16T08:29:40.633Z,68.95
2022-08-16T08:30:52.004Z,69.33
2022-08-16T08:31:38.462Z,68.56
2022-08-16T08:32:57.377Z,67.89
2022-08-16T08:33:38.820Z,69.23
2022-08-16T08:34:38.508Z,68.98
2022-08-16T08:35:38.525Z,67.73
2022-08-16T08:36:38.543Z,66.96
2022-08-16T08:37:55.191Z,68.34
2022-08-16T08:38:45.136Z,67.38
2022-08-16T08:39:38.609Z,67.29
2022-08-16T08:40:38.613Z,67.09
2022-08-16T08:41:38.627Z,65.75
2022-08-16T08:42:38.642Z,65.75
2022-08-16T08:43:41.825Z,65.56
2022-08-16T08:44:38.674Z,66.03
2022-08-16T08:45:48.878Z,67.09
2022-08-16T08:46:38.705Z,66.42
2022-08-16T08:47:38.725Z,67.16
2022-08-16T08:48:38.738Z,68.12
2022-08-16T08:49:46.514Z,66.49
2022-08-16T08:50:38.774Z,66.96
2022-08-16T08:51:38.787Z,67.73
2022-08-16T08:52:38.807Z,67.54
2022-08-16T08:53:38.826Z,66.49
2022-08-16T08:54:38.840Z,66.80
2022-08-16T08:55:38.855Z,65.30
2022-08-16T08:56:45.786Z,64.05
2022-08-16T08:57:38.891Z,64.72
2022-08-16T08:58:38.907Z,63.73
2022-08-16T08:59:40.994Z,64.69
2022-08-16T09:00:50.237Z,64.59
2022-08-16T09:01:43.007Z,64.98
2022-08-16T09:02:38.970Z,66.03
2022-08-16T09:03:39.052Z,66.52
2022-08-16T09:04:39.008Z,65.49
2022-08-16T09:05:39.027Z,65.01
2022-08-16T09:06:43.225Z,64.72
2022-08-16T09:08:00.678Z,64.63
2022-08-16T09:08:39.081Z,63.57
2022-08-16T09:09:41.227Z,64.22
2022-08-16T09:10:39.410Z,64.82
2022-08-16T09:11:40.909Z,65.17
2022-08-16T09:12:39.146Z,66.77
2022-08-16T09:13:39.162Z,67.19
2022-08-16T09:14:39.190Z,65.94
2022-08-16T09:15:39.198Z,64.98
2022-08-16T09:17:03.541Z,64.34
2022-08-16T09:17:51.725Z,64.15
2022-08-16T09:18:39.311Z,63.79
2022-08-16T09:19:40.688Z,62.48
2022-08-16T09:20:58.508Z,63.22
2022-08-16T09:21:39.350Z,64.56
2022-08-16T09:22:39.318Z,64.59
2022-08-16T09:23:39.336Z,63.38
2022-08-16T09:24:51.475Z,62.04
2022-08-16T09:25:39.366Z,60.57
2022-08-16T09:26:45.362Z,61.08
2022-08-16T09:27:56.467Z,61.30
2022-08-16T09:29:14.836Z,60.43
2022-08-16T09:29:44.536Z,59.50
2022-08-16T09:30:44.381Z,58.83
2022-08-16T09:31:41.370Z,59.79
2022-08-16T09:32:39.582Z,59.24
2022-08-16T09:33:39.803Z,58.79
2022-08-16T09:34:39.524Z,57.06
2022-08-16T09:35:39.583Z,56.99
2022-08-16T09:36:45.163Z,56.12
2022-08-16T09:37:39.573Z,56.10
2022-08-16T09:38:40.953Z,56.93
2022-08-16T09:39:41.643Z,57.80
2022-08-16T09:40:42.627Z,56.93
2022-08-16T09:41:39.642Z,57.10
2022-08-16T09:42:51.381Z,56.52
2022-08-16T09:44:00.174Z,56.71
2022-08-16T09:45:09.177Z,57.39
2022-08-16T09:45:39.728Z,58.37
2022-08-16T09:46:48.843Z,57.22
2022-08-16T09:47:57.224Z,56.77
2022-08-16T09:48:51.033Z,56.70
2022-08-16T09:49:41.032Z,54.87
2022-08-16T09:50:39.941Z,55.93
2022-08-16T09:51:39.834Z,56.05
2022-08-16T09:52:44.116Z,52.52
2022-08-16T09:53:39.873Z,52.49
2022-08-16T09:54:39.883Z,53.65
2022-08-16T09:55:44.643Z,52.56
2022-08-16T09:56:52.739Z,53.62
2022-08-16T09:57:39.936Z,54.90
2022-08-16T09:59:04.837Z,54.44
2022-08-16T09:59:42.075Z,52.30
2022-08-16T10:00:44.716Z,52.69
2022-08-16T10:01:43.672Z,52.33
2022-08-16T10:02:53.087Z,50.32
2022-08-16T10:04:02.794Z,50.42
2022-08-16T10:04:52.985Z,49.43
2022-08-16T10:05:40.088Z,50.40
2022-08-16T10:06:40.109Z,51.03
2022-08-16T10:07:45.130Z,48.81
2022-08-16T10:08:51.269Z,47.05
2022-08-16T10:09:44.867Z,48.40
2022-08-16T10:10:40.182Z,49.43
2022-08-16T10:11:50.050Z,48.88
2022-08-16T10:12:42.646Z,47.51
2022-08-16T10:13:40.737Z,48.66
2022-08-16T10:14:40.263Z,48.88
2022-08-16T10:15:40.281Z,48.79
2022-08-16T10:16:40.304Z,47.72
2022-08-16T10:17:40.331Z,47.65
2022-08-16T10:19:02.279Z,47.31
2022-08-16T10:19:40.363Z,47.94
2022-08-16T10:20:40.381Z,49.22
2022-08-16T10:21:40.401Z,49.07
2022-08-16T10:22:40.418Z,47.92
2022-08-16T10:23:40.447Z,48.03
2022-08-16T10:24:40.456Z,47.05
2022-08-16T10:27:00.649Z,47.67
2022-08-16T10:27:20.711Z,49.60
2022-08-16T10:27:47.372Z,49.27
2022-08-16T10:28:41.916Z,46.78
2022-08-16T10:30:00.317Z,47.53
2022-08-16T10:30:40.574Z,47.65
2022-08-16T10:31:44.450Z,45.92
2022-08-16T10:32:40.612Z,45.43
2022-08-16T10:33:40.641Z,46.40
2022-08-16T10:34:40.657Z,46.69
2022-08-16T10:35:46.402Z,47.80
2022-08-16T10:36:40.699Z,49.15
2022-08-16T10:37:40.716Z,48.40
2022-08-16T10:38:40.833Z,48.03
2022-08-16T10:39:42.327Z,47.36
2022-08-16T10:40:40.803Z,47.94
2022-08-16T10:41:40.801Z,47.96
2022-08-16T10:42:46.404Z,47.19
2022-08-16T10:43:40.833Z,47.19
2022-08-16T10:44:40.954Z,47.58
2022-08-16T10:45:42.010Z,47.87
2022-08-16T10:46:42.190Z,48.03
2022-08-16T10:47:40.958Z,48.42
2022-08-16T10:48:40.939Z,48.59
2022-08-16T10:49:41.237Z,47.36
2022-08-16T10:50:40.973Z,47.00
2022-08-16T10:52:02.736Z,46.59
2022-08-16T10:53:41.035Z,46.51
2022-08-16T10:55:44.106Z,45.36
2022-08-16T10:56:52.013Z,44.29
2022-08-16T10:57:41.118Z,44.87
2022-08-16T10:58:41.139Z,44.51
2022-08-16T10:59:50.802Z,44.32
2022-08-16T11:00:41.185Z,44.34
2022-08-16T11:01:44.129Z,43.06
2022-08-16T11:02:59.168Z,43.66
2022-08-16T11:03:42.676Z,44.12
2022-08-16T11:06:41.654Z,43.13
2022-08-16T11:07:43.036Z,42.55
2022-08-16T11:08:45.443Z,42.52
2022-08-16T11:09:43.961Z,43.47
2022-08-16T11:12:41.433Z,44.34
2022-08-16T11:13:58.699Z,43.85
2022-08-16T11:15:11.358Z,42.99
2022-08-16T11:15:41.780Z,43.85
2022-08-16T11:17:11.435Z,44.73
2022-08-16T11:17:44.838Z,43.76
2022-08-16T11:18:48.461Z,43.66
2022-08-16T11:20:42.905Z,42.72
2022-08-16T11:22:48.573Z,43.60
2022-08-16T11:23:57.466Z,44.87
2022-08-16T11:24:44.554Z,43.91
2022-08-16T11:26:07.339Z,43.64
2022-08-16T11:26:41.730Z,42.94
2022-08-16T11:27:41.750Z,43.72
2022-08-16T11:29:41.797Z,42.39
2022-08-16T11:30:41.813Z,43.35
2022-08-16T11:31:45.467Z,43.30
2022-08-16T11:32:41.953Z,42.83
2022-08-16T11:33:57.335Z,41.87
2022-08-16T11:35:05.893Z,41.31
2022-08-16T11:36:22.301Z,41.50
2022-08-16T11:36:53.938Z,41.00
2022-08-16T11:38:51.214Z,41.63
2022-08-16T11:39:42.060Z,41.44
2022-08-16T11:40:44.170Z,41.46
2022-08-16T11:41:43.688Z,40.90
2022-08-16T11:42:42.073Z,40.52
2022-08-16T11:43:42.097Z,40.92
2022-08-16T11:44:52.744Z,40.92
2022-08-16T11:45:42.410Z,40.50
2022-08-16T11:46:44.141Z,41.36
2022-08-16T11:47:42.239Z,41.15
2022-08-16T11:48:42.202Z,41.42
2022-08-16T11:49:42.230Z,41.93
2022-08-16T11:50:42.249Z,40.78
2022-08-16T11:51:42.269Z,41.63
2022-08-16T11:52:46.490Z,41.05
2022-08-16T11:53:42.313Z,38.85
2022-08-16T11:54:42.342Z,38.20
2022-08-16T11:55:43.995Z,38.79
2022-08-16T11:56:56.931Z,36.74
2022-08-16T11:57:42.405Z,36.65
2022-08-16T11:58:42.429Z,36.66
2022-08-16T11:59:42.445Z,36.57
2022-08-16T12:00:51.343Z,36.46
2022-08-16T12:01:44.457Z,37.58
2022-08-16T12:02:46.101Z,38.89
2022-08-16T12:03:42.557Z,38.60
2022-08-16T12:04:42.556Z,39.87
2022-08-16T12:05:42.584Z,40.09
2022-08-16T12:06:42.602Z,39.80
2022-08-16T12:07:42.621Z,39.64
2022-08-16T12:08:42.726Z,36.84
2022-08-16T12:09:43.510Z,36.16
2022-08-16T12:10:43.236Z,36.65
2022-08-16T12:11:43.771Z,35.66
2022-08-16T12:12:42.737Z,36.36
2022-08-16T12:13:42.757Z,35.49
2022-08-16T12:14:42.777Z,35.49
2022-08-16T12:15:42.802Z,35.41
2022-08-16T12:16:45.728Z,35.20
2022-08-16T12:17:42.850Z,35.78
2022-08-16T12:18:42.971Z,35.99
2022-08-16T12:19:42.885Z,36.38
2022-08-16T12:20:42.914Z,38.64
2022-08-16T12:21:58.234Z,38.56
2022-08-16T12:22:42.954Z,37.12
2022-08-16T12:23:42.975Z,36.74
2022-08-16T12:24:43.005Z,36.88
2022-08-16T12:25:43.022Z,34.91
2022-08-16T12:26:43.042Z,36.03
2022-08-16T12:27:43.069Z,36.82
2022-08-16T12:28:54.591Z,36.96
2022-08-16T12:29:43.116Z,36.07
2022-08-16T12:30:43.131Z,36.38
2022-08-16T12:32:00.596Z,36.55
2022-08-16T12:32:43.174Z,36.84
2022-08-16T12:33:44.908Z,36.98
2022-08-16T12:34:50.815Z,35.89
2022-08-16T12:35:43.238Z,37.02
2022-08-16T12:36:43.685Z,37.81
2022-08-16T12:37:43.286Z,36.86
2022-08-16T12:38:47.971Z,36.20
2022-08-16T12:39:50.563Z,35.81
2022-08-16T12:40:43.357Z,36.70
2022-08-16T12:41:45.058Z,36.41
2022-08-16T12:42:52.751Z,37.09
2022-08-16T12:43:45.306Z,35.56
2022-08-16T12:44:43.554Z,35.72
2022-08-16T12:45:43.569Z,36.12
2022-08-16T12:46:43.490Z,35.73
2022-08-16T12:47:43.509Z,35.52
2022-08-16T12:48:43.533Z,36.30
2022-08-16T12:49:43.557Z,36.41
2022-08-16T12:50:43.597Z,36.76
2022-08-16T12:51:59.674Z,37.90
2022-08-16T12:52:52.605Z,38.78
2022-08-16T12:53:43.647Z,38.50
2022-08-16T12:54:43.671Z,37.90
2022-08-16T12:55:43.908Z,38.53
2022-08-16T12:56:43.714Z,36.99
2022-08-16T12:57:43.739Z,37.46
2022-08-16T12:58:48.762Z,37.48
2022-08-16T12:59:43.790Z,38.27
2022-08-16T13:00:43.922Z,36.83
2022-08-16T13:01:43.836Z,36.80
2022-08-16T13:02:43.893Z,37.75